Decoded Metar for EPSC (SZCZECIN in POLAND) (IATA:SZZ) | Meteo·Mobile Aviation Weather
aviador You're here:

EPSC Decoded Metar

SZCZECIN in POLAND
Report Time2019-07-20 13:30:00
UTC Time2019-07-20 14:02:48
Flight Rules vfr VFR
Wind170° at 07 kt
W.Decomp.*RWY 13: 5.6 kt HW 4.2 kt RCW
Visibility9999 m
Phenomena:N/A
Clouds:N/A
Expected CloudBase > 7,200 ft AGL from Temp-Dew spread
CeilingNone
Temp28°C (ISA +13)
Dew Point10°C (32% RH)
Heat Index27.2°C
AAT25.5°C
QNH1014 hPa
Density Alt1,644 ft
Elevation10 ft
Report Wrong Elevation
Raw Report
EPSC 201330Z 17007KT CAVOK 28/10 Q1014=

Extra information for EPSC:More info

Metar Taf Metar & Taf Last 4 Metars F.Rules Stats Wind Profile Meteogram Temp Stats Airport Information Weather charts Add Link Nearby VenuesMetar ALERT Operation Metar Decoded Social comments